Airfield :
LOGIN :

Register | Disclaimer

   EN    FR    IT 

 










Legend :    VFR   Marginal VFR   IFR   Intensive IFR   Very Intensive IFR
Visi :
Ceiling :
>= 8 km
>= 3000ft
5 to 8 km
1000 to 3000 ft
1500m to 5 km
500 to 1000 ft
800 to 1500m
200 to 500 ft
< 800m
< 200 ft
Symbols :   Thunderstorms  Fog  Heavy snow  Heavy precipitations  Wind > 20 kt
SIGMETs :     Misc.  Thunderstorms  Icing  Turbulence  Mountain Waves  Volcanic Ashes







- Airport Elevation : 141 ft
- IATA code : SKS


EKSP - Srydstrup Vojens

CURRENT METAR :
  • 191220Z 10013KT 070V130 CAVOK 17/03 Q1036

EXPIRED METARs :
  • 191150Z 10013KT CAVOK 16/03 Q1036
  • 191120Z 11012KT CAVOK 16/03 Q1035 RMK SKC
  • 191050Z 09012KT CAVOK 16/04 Q1036 RMK SKC
  • 191020Z 09010KT 040V120 CAVOK 15/04 Q1036 RMK SKC
  • 190950Z 08012KT 050V120 CAVOK 14/03 Q1036 RMK SKC

TAF TAF EKSP
Valid from the 19 at 12:00 until the 20 at 12:00 UTC


191120Z 1912/2012 09012KT 9999 FEW200
BECMG 1918/1921 07005KT
No reported NOTAMs for that airfield.



MET'MAP, your aeronautical weather chart ! - Copyright ORBIFLY December 2007 - Disclaimer

ORBIFLY MET'MAP TEAM :

Programming & Development : Alexandra Zaïnal
Concept & Development : Baudouin d'Aumeries
Co-Development & Prog : Marc-Olivier Méhu
Technical & hardware support : Manuel Goepfert

Contact : metmap@orbifly.com




SOURCES & CREDITS :

   NOAA